Linville Falls, North Carolina
Current Conditions -  °F | °C
As of 11:55 AM on Thursday 23 Oct 2014 (Local Time) from KMRN Reporting Station
Clear Clear  
Wind Chill: 62°   Ceiling: Unl
Heat Index: 62°   Visibility: 10mi
Dew Point: 38°   Wind: 5mph
Humidity: 41%   Direction: 330°NNW
Pressure: 30.12"   Gusts: NA
Location:  35.96°N, 81.94°W
Report Text: KMRN 231555Z AUTO 33004KT 10SM CLR 17/03 A3012 RMK AO2 T01660034
Loading
Personal Weather Stations






























Interactive Weather Map
Tropical Storm Tracking
New forecast layout! Learn more

10-Day Weather Forecast

Advertisements
Track Severe Weather on mobile